Record high temperature 44.9°C Record low temperature -0.3°C Record high gust 87.3 km/h Record high average 77.7 km/h Record daily rain 484.8 mm Record low windchill -5.8°C Record high barometer 1043.6 hPa Record low barometer 978.0 hPa
Daily high pressure 1011.8 mb Daily low pressure 1011.8 mb Daily low windchill 19.3°C Daily high heat index 19.3°C Daily high gust speed 22.0 kmh NE Daily high average speed 11.1 kmh NE
Estación de MeteoMurcia.com -------- Murcia-Puente Tocinos
Ultima grabación a: 00:00 Data: 16 May 2019, time of next update: 00:10
Tiempo actualClear/Night Temperatura actual19.3°C (66.7°F) (Indice de Calor19.3°C ), Temperatura aparente 18.9°C
Temperatura máxima (desde medianoche)19.3°C at: 00:00 Temperatura mínima (desde medianoche)19.3°C at: 00:00
Velocidad media del viento (diez minutos)9.4 kmh (5.1 kts) Dirección del viento (diez minutos)NE (48°)
Indice de Calor19.3°C ráfagas maxima (última hora)23.3 kmh (12.6 kts) at: 23:56
ráfagas maxima (desde medianoche)22.0 kmh (11.9 kts) at: 00:00 Maximo media de un minuto (desde medianoche)11.1 kmh (6.0 kts) at: 00:00
Lluvia (última hora)0.0 mm Lluvia (desde medianoche)0.0 mm (0.00 in.)---
Lluvia Este mes 0.0 mm (0.00 in.) Lluvia Hasta la fecha este año151.0 mm (5.94 in.)
Lluvia máxima por minuto (última hora)0.0 mm/min Lluvia maxima por hora (últimas 6 horas)0.0 mm/hora
Lluvia de ayer 0.0 mm Punto de rocío 15.8°C (Wet Bulb :17.2°C )
Humedad 80 %, Humidex 23.8°C Barómetro corregido a msl1011.8 mb
cambio de presión+0.4 mb (última hora) Tendencia (últimas 1 hora)ESTACIONARIO
cambio de presión (últimas 12 horas)+2.9 mb cambio de presión (últimas 6 horas)+5.2 mb
Current Temp. Interna 28.2°C
Current Hum. Interna 47%


Última imagen cámara web


Weather report/warning/Metars

Alicante / El Altet, Spain (LEAL) 38-17N 000-33W 31M
Feb 04, 2019 - 09:00 AM EST / 2019.02.04 1400 UTC
Wind: from the SW (220 degrees) at 6 MPH (5 KT) (direction variable):0
Visibility: greater than 7 mile(s):0
Temperature: 60 F (16 C)
Dew Point: 21 F (-6 C)
Relative Humidity: 21%
Pressure (altimeter): 30.30 in. Hg (1026 hPa)
ob: LEAL 041400Z 22005KT 160V280 CAVOK 16/M06 Q1026 NOSIG
cycle: 14
Murcia / San Javier, Spain (LELC) 37-47N 000-48W 3M
Feb 04, 2019 - 09:00 AM EST / 2019.02.04 1400 UTC
Wind: from the SE (130 degrees) at 8 MPH (7 KT):0
Visibility: greater than 7 mile(s):0
Temperature: 57 F (14 C)
Dew Point: 35 F (2 C)
Relative Humidity: 44%
Pressure (altimeter): 30.30 in. Hg (1026 hPa)
ob: LELC 041400Z 13007KT CAVOK 14/02 Q1026 NOSIG
cycle: 14
Murcia / Alcantarilla, Spain (LERI) 37-57N 001-14W 75M
Feb 04, 2019 - 09:00 AM EST / 2019.02.04 1400 UTC
Wind: Variable at 2 MPH (2 KT):0
Visibility: greater than 7 mile(s):0
Temperature: 60 F (16 C)
Dew Point: 21 F (-6 C)
Relative Humidity: 21%
Pressure (altimeter): 30.30 in. Hg (1026 hPa)
ob: LERI 041400Z VRB02KT CAVOK 16/M06 Q1026 NOSIG
cycle: 14
Gerona / Costa Brava, Spain (LEGE) 41-54N 002-46E 129M
Feb 04, 2019 - 09:00 AM EST / 2019.02.04 1400 UTC
Wind: from the SSW (210 degrees) at 8 MPH (7 KT) (direction variable):0
Visibility: greater than 7 mile(s):0
Temperature: 53 F (12 C)
Dew Point: 21 F (-6 C)
Relative Humidity: 27%
Pressure (altimeter): 30.24 in. Hg (1024 hPa)
ob: LEGE 041400Z 21007KT 160V260 CAVOK 12/M06 Q1024
cycle: 14
Madri-Colmenar, Spain (LECV) 40-39N 003-44W
Feb 04, 2019 - 09:00 AM EST / 2019.02.04 1400 UTC
Wind: Calm:0
Visibility: greater than 7 mile(s):0
Temperature: 53 F (12 C)
Dew Point: 26 F (-3 C)
Relative Humidity: 34%
Pressure (altimeter): 30.33 in. Hg (1027 hPa)
ob: LECV 041400Z 00000KT CAVOK 12/M03 Q1027
cycle: 14
Asturias / Aviles, Spain (LEAS) 43-33N 006-02W 130M
Feb 04, 2019 - 09:00 AM EST / 2019.02.04 1400 UTC
Wind: from the W (280 degrees) at 3 MPH (3 KT) (direction variable):0
Visibility: greater than 7 mile(s):0
Sky conditions: mostly cloudy
Temperature: 57 F (14 C)
Dew Point: 42 F (6 C)
Relative Humidity: 58%
Pressure (altimeter): 30.30 in. Hg (1026 hPa)
ob: LEAS 041400Z 28003KT 260V320 9999 FEW040 BKN070 14/06 Q1026 NOSIG
cycle: 14
Almeria / Aeropuerto, Spain (LEAM) 36-51N 002-23W 21M
Feb 04, 2019 - 09:00 AM EST / 2019.02.04 1400 UTC
Wind: from the S (170 degrees) at 6 MPH (5 KT) (direction variable):0
Visibility: greater than 7 mile(s):0
Temperature: 59 F (15 C)
Dew Point: 39 F (4 C)
Relative Humidity: 47%
Pressure (altimeter): 30.33 in. Hg (1027 hPa)
ob: LEAM 041400Z 17005KT 140V230 CAVOK 15/04 Q1027
cycle: 14
Pamplona / Noain, Spain (LEPP) 42-46N 001-38W 453M
Feb 04, 2019 - 09:00 AM EST / 2019.02.04 1400 UTC
Wind: Variable at 2 MPH (2 KT):0
Visibility: greater than 7 mile(s):0
Sky conditions: mostly cloudy
Temperature: 48 F (9 C)
Dew Point: 32 F (0 C)
Relative Humidity: 53%
Pressure (altimeter): 30.30 in. Hg (1026 hPa)
ob: LEPP 041400Z VRB02KT 9999 BKN055 09/00 Q1026
cycle: 14
Badajoz / Talavera La Real, Spain (LEBZ) 38-53N 006-49W 192M
Feb 04, 2019 - 09:00 AM EST / 2019.02.04 1400 UTC
Wind: from the N (010 degrees) at 2 MPH (2 KT):0
Visibility: greater than 7 mile(s):0
Temperature: 53 F (12 C)
Dew Point: 33 F (1 C)
Relative Humidity: 46%
Pressure (altimeter): 30.39 in. Hg (1029 hPa)
ob: LEBZ 041400Z 01002KT CAVOK 12/01 Q1029
cycle: 14
Albacete / Los Llanos, Spain (LEAB) 38-57N 001-51W 704M
Feb 04, 2019 - 09:00 AM EST / 2019.02.04 1400 UTC
Wind: from the NW (310 degrees) at 15 MPH (13 KT):0
Visibility: greater than 7 mile(s):0
Temperature: 50 F (10 C)
Dew Point: 24 F (-4 C)
Relative Humidity: 37%
Pressure (altimeter): 30.33 in. Hg (1027 hPa)
ob: LEAB 041400Z 31013KT CAVOK 10/M04 Q1027 NOSIG
cycle: 14
Station name not available
Feb 04, 2019 - 09:00 AM EST / 2019.02.04 1400 UTC
Wind: from the S (180 degrees) at 6 MPH (5 KT) (direction variable):0
Visibility: greater than 7 mile(s):0
Temperature: 57 F (14 C)
Dew Point: 21 F (-6 C)
Relative Humidity: 24%
Pressure (altimeter): 30.30 in. Hg (1026 hPa)
ob: LEMI 041400Z 18005KT 150V210 CAVOK 14/M06 Q1026
cycle: 14



La informacion se graba a intervalos de 2 minutos, pero hay info grabada cada minuto. Optimizado para 800*600 y Color verdadero. Use el boton de

Use the RECARGA en su navegador para recojer la ulima info.

Clicar aquí para regarga diaria de medias/extremas del mes














Created by "Weather Display" software version 10.37S at this start time/date 2:22:32 15/05/2019

La estación de MeteoMurcia.com, publica sus datos en los siguientes proyectos:

Weather Underground PWS IMURCIAP2 Meteoclimatic www.awekas.at

W3Counter
Web Analytics